Time;durP1;ratioP1;P1;durP2;ratioP2;P2;SDS_P1;SDS_P2;PMS_P1;PMS_P2;Temp;Humidity;BMP_temperature;BMP_pressure;BME280_temperature;BME280_humidity;BME280_pressure;Samples;Min_cycle;Max_cycle;Signal;HPM_P1;HPM_P2
2023/07/30 04:01:58;;;;;;;0.60;0.10;;;21.60;99.90;;;;;;5377186;22;20532;-72
2023/07/30 04:04:26;;;;;;;0.60;0.10;;;21.40;99.90;;;;;;5073917;28;20501;-72
2023/07/30 04:06:54;;;;;;;0.60;0.20;;;21.40;99.90;;;;;;5073788;28;20437;-71
2023/07/30 04:09:22;;;;;;;0.60;0.10;;;21.40;99.90;;;;;;5074348;28;20514;-72
2023/07/30 04:11:50;;;;;;;0.60;0.10;;;21.40;99.90;;;;;;5074138;28;20466;-73
2023/07/30 04:14:18;;;;;;;0.60;0.20;;;21.40;99.90;;;;;;5076728;28;20494;-72
2023/07/30 04:16:47;;;;;;;0.60;0.20;;;;;;;;;;5074308;28;20443;-72
2023/07/30 04:19:16;;;;;;;0.90;0.60;;;21.40;99.90;;;;;;5074657;28;20522;-71
2023/07/30 04:21:44;;;;;;;0.90;0.70;;;21.50;99.90;;;;;;5075675;22;20491;-77
2023/07/30 04:24:12;;;;;;;1.00;0.87;;;21.50;99.90;;;;;;5053019;28;20523;-77
2023/07/30 04:26:40;;;;;;;0.60;0.10;;;21.50;99.90;;;;;;5053384;28;20538;-77
2023/07/30 04:29:08;;;;;;;0.60;0.10;;;21.50;99.90;;;;;;5054859;28;20566;-77
2023/07/30 04:31:36;;;;;;;0.60;0.23;;;20.90;99.90;;;;;;5053954;28;21149;-77
2023/07/30 04:34:04;;;;;;;0.60;0.10;;;20.90;99.90;;;;;;5056803;28;20525;-77
2023/07/30 04:36:33;;;;;;;0.60;0.10;;;20.90;99.90;;;;;;5057047;28;20954;-76
2023/07/30 04:39:01;;;;;;;0.60;0.10;;;20.90;99.90;;;;;;5054633;28;20431;-76
2023/07/30 04:41:29;;;;;;;0.60;0.10;;;20.90;99.90;;;;;;5053781;28;20491;-76
2023/07/30 04:43:57;;;;;;;0.60;0.10;;;21.00;99.90;;;;;;5053606;28;20500;-77
2023/07/30 04:46:25;;;;;;;0.60;0.10;;;20.90;99.90;;;;;;5053500;28;20471;-76
2023/07/30 04:48:53;;;;;;;0.60;0.10;;;20.90;99.90;;;;;;5053571;28;20574;-78
2023/07/30 04:51:21;;;;;;;1.03;0.97;;;20.80;99.90;;;;;;5053747;28;20488;-76
2023/07/30 04:53:50;;;;;;;0.60;0.10;;;20.70;99.90;;;;;;5053707;28;20952;-76
2023/07/30 04:56:18;;;;;;;0.60;0.13;;;;;;;;;;5053229;28;20529;-77
2023/07/30 04:58:46;;;;;;;0.60;0.10;;;20.60;99.90;;;;;;5053430;28;20438;-76
2023/07/30 05:01:14;;;;;;;0.60;0.10;;;20.80;99.90;;;;;;5053563;28;20466;-76
2023/07/30 05:03:42;;;;;;;0.60;0.10;;;20.80;99.90;;;;;;5062184;28;20438;-77
2023/07/30 05:06:10;;;;;;;0.60;0.10;;;20.90;99.90;;;;;;5073262;28;20839;-76
2023/07/30 05:08:37;;;;;;;0.60;0.10;;;20.90;99.90;;;;;;5073088;28;20477;-77
2023/07/30 05:11:06;;;;;;;0.60;0.10;;;21.00;99.90;;;;;;5074419;28;20469;-76
2023/07/30 05:13:34;;;;;;;0.60;0.20;;;21.00;99.90;;;;;;5073612;28;20520;-76
2023/07/30 05:16:02;;;;;;;0.60;0.10;;;21.10;99.90;;;;;;5074326;28;20446;-76
2023/07/30 05:18:30;;;;;;;0.60;0.10;;;21.10;99.90;;;;;;5074467;28;20495;-75
2023/07/30 05:20:58;;;;;;;0.60;0.10;;;21.20;99.90;;;;;;5073143;28;20572;-75
2023/07/30 05:23:26;;;;;;;0.60;0.10;;;21.20;99.90;;;;;;5073361;28;20464;-77
2023/07/30 05:25:54;;;;;;;0.60;0.20;;;21.20;99.90;;;;;;5075617;28;20446;-75
2023/07/30 05:28:23;;;;;;;0.60;0.10;;;21.30;99.90;;;;;;5075139;28;20545;-74
2023/07/30 05:30:51;;;;;;;0.60;0.10;;;21.40;99.90;;;;;;5074886;28;20491;-77
2023/07/30 05:33:19;;;;;;;1.73;0.40;;;21.40;99.90;;;;;;5081830;28;20470;-78
2023/07/30 05:35:47;;;;;;;0.60;0.10;;;20.80;99.90;;;;;;5082704;28;20946;-77
2023/07/30 05:38:15;;;;;;;0.60;0.17;;;20.50;99.90;;;;;;5078567;28;20445;-77
2023/07/30 05:40:43;;;;;;;0.60;0.10;;;20.60;99.90;;;;;;5079489;28;20488;-76
2023/07/30 05:43:11;;;;;;;0.70;0.20;;;20.50;99.90;;;;;;5073250;28;20615;-78
2023/07/30 05:45:40;;;;;;;0.60;0.10;;;20.70;99.90;;;;;;5055790;28;20550;-79
2023/07/30 05:48:08;;;;;;;0.60;0.10;;;20.80;99.90;;;;;;5056305;28;20566;-79
2023/07/30 05:50:36;;;;;;;0.60;0.10;;;20.80;99.90;;;;;;5054555;28;20490;-79
2023/07/30 05:53:04;;;;;;;0.60;0.10;;;20.80;99.90;;;;;;5033247;28;20476;-78
2023/07/30 05:55:32;;;;;;;0.60;0.20;;;20.70;99.90;;;;;;5032411;28;20648;-76
2023/07/30 05:58:00;;;;;;;0.60;0.10;;;20.50;99.90;;;;;;5032367;28;21020;-76
2023/07/30 06:00:28;;;;;;;0.63;0.20;;;20.40;99.90;;;;;;5031844;28;20987;-77
2023/07/30 06:02:57;;;;;;;0.60;0.20;;;20.40;99.90;;;;;;5032687;28;20475;-77
2023/07/30 06:05:25;;;;;;;0.60;0.10;;;20.20;99.90;;;;;;5032181;28;20811;-76
2023/07/30 06:07:53;;;;;;;0.60;0.10;;;20.30;99.90;;;;;;5032362;28;20803;-77
2023/07/30 06:10:21;;;;;;;1.30;0.47;;;20.60;99.90;;;;;;5032973;28;20515;-75
2023/07/30 06:12:49;;;;;;;0.60;0.20;;;20.70;99.90;;;;;;5031941;28;20931;-77
2023/07/30 06:15:17;;;;;;;0.60;0.10;;;20.70;99.90;;;;;;5032027;28;20540;-77
2023/07/30 06:17:44;;;;;;;0.60;0.20;;;20.70;99.90;;;;;;5032088;28;20483;-77
2023/07/30 06:20:14;;;;;;;0.60;0.10;;;20.90;99.90;;;;;;5032109;28;20490;-78
2023/07/30 06:22:42;;;;;;;0.70;0.30;;;20.90;99.90;;;;;;5032042;28;20456;-77
2023/07/30 06:25:10;;;;;;;0.60;0.10;;;;;;;;;;5031984;28;20484;-77
2023/07/30 06:27:38;;;;;;;0.87;0.30;;;;;;;;;;5032944;28;20538;-77
2023/07/30 06:30:07;;;;;;;0.60;0.20;;;20.80;99.90;;;;;;5047240;28;20478;-76
2023/07/30 06:32:35;;;;;;;0.60;0.10;;;20.80;99.90;;;;;;5052478;28;20522;-77
2023/07/30 06:35:03;;;;;;;0.77;0.40;;;20.90;99.90;;;;;;5051428;28;20442;-76
2023/07/30 06:37:32;;;;;;;0.60;0.10;;;20.90;99.90;;;;;;5054542;28;20552;-76
2023/07/30 06:40:03;;;;;;;0.73;0.40;;;20.90;99.90;;;;;;5062948;28;20434;-76
2023/07/30 06:42:31;;;;;;;0.60;0.10;;;20.80;99.90;;;;;;5071178;28;20441;-76
2023/07/30 06:44:59;;;;;;;0.70;0.20;;;20.90;99.90;;;;;;5052263;28;20467;-77
2023/07/30 06:47:27;;;;;;;1.27;0.43;;;20.80;99.90;;;;;;5051312;28;20935;-77
2023/07/30 06:49:55;;;;;;;0.60;0.10;;;20.80;99.90;;;;;;5051272;28;20479;-77
2023/07/30 06:52:23;;;;;;;0.60;0.20;;;20.70;99.90;;;;;;5051281;28;20527;-77
2023/07/30 06:54:52;;;;;;;0.60;0.10;;;20.80;99.90;;;;;;5051832;28;20534;-77
2023/07/30 06:57:19;;;;;;;0.80;0.33;;;20.90;99.90;;;;;;5051126;28;20450;-76
2023/07/30 06:59:47;;;;;;;1.33;1.23;;;21.00;99.90;;;;;;5051571;28;20435;-77
2023/07/30 07:02:15;;;;;;;0.60;0.10;;;21.10;99.90;;;;;;5050974;28;20462;-76
2023/07/30 07:04:44;;;;;;;0.60;0.10;;;21.20;99.90;;;;;;5051795;28;20447;-75
2023/07/30 07:07:11;;;;;;;0.60;0.10;;;21.20;99.90;;;;;;5050717;28;20474;-75
2023/07/30 07:09:39;;;;;;;0.60;0.10;;;21.30;99.90;;;;;;5051601;28;20494;-76
2023/07/30 07:12:09;;;;;;;0.60;0.13;;;21.40;99.90;;;;;;5052629;28;20520;-76
2023/07/30 07:14:39;;;;;;;0.60;0.10;;;;;;;;;;5055730;28;20477;-77
2023/07/30 07:17:07;;;;;;;0.60;0.10;;;21.60;99.90;;;;;;5054961;28;20441;-76
2023/07/30 07:19:36;;;;;;;0.60;0.17;;;21.50;99.90;;;;;;5056176;28;20492;-75
2023/07/30 07:22:05;;;;;;;0.70;0.20;;;21.50;99.90;;;;;;5054702;28;20483;-76
2023/07/30 07:24:32;;;;;;;1.00;0.30;;;21.50;99.90;;;;;;5054990;28;20447;-75
2023/07/30 07:27:00;;;;;;;0.87;0.80;;;21.40;99.90;;;;;;5054782;28;21024;-76
2023/07/30 07:29:30;;;;;;;1.03;0.60;;;21.50;99.90;;;;;;5055082;28;20510;-76
2023/07/30 07:31:58;;;;;;;1.00;0.40;;;;;;;;;;5055328;28;20504;-76
2023/07/30 07:34:26;;;;;;;0.80;0.50;;;;;;;;;;5057123;28;20448;-76
2023/07/30 07:36:54;;;;;;;0.80;0.60;;;21.10;99.90;;;;;;5056800;28;20497;-76
2023/07/30 07:39:22;;;;;;;0.67;0.20;;;21.10;99.90;;;;;;5073468;28;20518;-76
2023/07/30 07:41:50;;;;;;;0.70;0.30;;;21.00;99.90;;;;;;5075182;28;20491;-76
2023/07/30 07:44:18;;;;;;;0.60;0.17;;;21.00;99.90;;;;;;5076807;28;20821;-76
2023/07/30 07:46:47;;;;;;;0.60;0.10;;;20.90;99.90;;;;;;5076753;28;20491;-76
2023/07/30 07:49:15;;;;;;;0.80;0.47;;;20.90;99.90;;;;;;5077583;28;20442;-76
2023/07/30 07:51:43;;;;;;;0.60;0.20;;;21.00;99.90;;;;;;5082331;28;20492;-77
2023/07/30 07:54:11;;;;;;;0.70;0.47;;;;;;;;;;5082321;28;20495;-73
2023/07/30 07:56:39;;;;;;;0.60;0.10;;;21.00;99.90;;;;;;5083030;28;20445;-78
2023/07/30 07:59:07;;;;;;;0.60;0.10;;;21.20;99.90;;;;;;5075117;28;20941;-76
2023/07/30 08:01:35;;;;;;;0.60;0.10;;;;;;;;;;5077771;28;20898;-79
2023/07/30 08:04:05;;;;;;;0.60;0.10;;;21.40;99.90;;;;;;5082023;28;20462;-79
2023/07/30 08:06:33;;;;;;;0.60;0.10;;;21.40;99.90;;;;;;5080890;28;20443;-74
2023/07/30 08:09:01;;;;;;;0.60;0.10;;;21.50;99.90;;;;;;5076232;28;20533;-75
2023/07/30 08:11:32;;;;;;;0.60;0.10;;;21.50;99.90;;;;;;5072210;28;20477;-76
2023/07/30 08:14:00;;;;;;;0.60;0.20;;;21.50;99.90;;;;;;5067907;28;20544;-74
2023/07/30 08:16:29;;;;;;;0.60;0.10;;;21.50;99.90;;;;;;5073098;28;20962;-78
2023/07/30 08:18:57;;;;;;;0.60;0.10;;;21.60;99.90;;;;;;5077104;28;20443;-74
2023/07/30 08:21:26;;;;;;;3.07;2.87;;;21.70;99.90;;;;;;5079902;28;20477;-77
2023/07/30 08:23:54;;;;;;;0.60;0.10;;;21.70;99.90;;;;;;5078951;28;20454;-75
2023/07/30 08:26:22;;;;;;;0.60;0.10;;;21.60;99.90;;;;;;5085972;28;20472;-76
2023/07/30 08:28:50;;;;;;;0.60;0.20;;;21.70;99.90;;;;;;5077773;28;20541;-73
2023/07/30 08:31:18;;;;;;;0.60;0.20;;;21.80;99.90;;;;;;5076713;28;20505;-83
2023/07/30 08:33:46;;;;;;;0.60;0.10;;;21.80;99.90;;;;;;5074958;28;20435;-76
2023/07/30 08:36:14;;;;;;;0.60;0.10;;;21.90;99.90;;;;;;5076452;28;20467;-78
2023/07/30 08:38:43;;;;;;;0.60;0.23;;;22.00;99.90;;;;;;5075807;28;20815;-78
2023/07/30 08:41:11;;;;;;;0.60;0.20;;;22.10;99.90;;;;;;5077691;28;20565;-76
2023/07/30 08:43:39;;;;;;;0.60;0.10;;;22.00;99.90;;;;;;5072668;28;20463;-80
2023/07/30 08:46:07;;;;;;;0.60;0.20;;;22.50;99.90;;;;;;5064678;28;20520;-76
2023/07/30 08:48:35;;;;;;;0.60;0.10;;;22.10;99.90;;;;;;5070733;28;20484;-77
2023/07/30 08:51:03;;;;;;;0.60;0.10;;;22.30;99.90;;;;;;5080256;28;20562;-77
2023/07/30 08:53:31;;;;;;;0.60;0.10;;;22.50;99.90;;;;;;5080644;28;20475;-77
2023/07/30 08:56:01;;;;;;;1.93;1.40;;;22.50;99.90;;;;;;5072032;28;20659;-76
2023/07/30 08:58:30;;;;;;;0.60;0.10;;;22.50;99.90;;;;;;5078462;28;20513;-76
2023/07/30 09:00:58;;;;;;;0.60;0.10;;;22.70;99.90;;;;;;5075088;28;20549;-76
2023/07/30 09:03:28;;;;;;;0.60;0.10;;;22.70;99.90;;;;;;5074391;28;20439;-77
2023/07/30 09:05:56;;;;;;;0.60;0.30;;;22.60;99.90;;;;;;5075715;28;20931;-72
2023/07/30 09:08:25;;;;;;;0.60;0.10;;;22.70;99.90;;;;;;5072866;28;20818;-68
2023/07/30 09:10:53;;;;;;;0.60;0.10;;;22.70;99.90;;;;;;5070638;28;21023;-72
2023/07/30 09:13:25;;;;;;;0.60;0.10;;;22.60;99.90;;;;;;5072759;28;20474;-71
2023/07/30 09:15:53;;;;;;;0.60;0.10;;;22.40;99.90;;;;;;5065311;28;20472;-73
2023/07/30 09:18:21;;;;;;;0.60;0.30;;;22.60;99.90;;;;;;5072887;28;20443;-70
2023/07/30 09:20:48;;;;;;;0.60;0.10;;;22.50;99.90;;;;;;5073659;28;20470;-72
2023/07/30 09:23:18;;;;;;;0.60;0.30;;;22.50;99.90;;;;;;5070658;28;20523;-76
2023/07/30 09:25:49;;;;;;;1.90;1.80;;;22.60;99.90;;;;;;5067044;28;20423;-73
2023/07/30 09:28:19;;;;;;;0.60;0.10;;;22.80;99.90;;;;;;5072384;28;20449;-71
2023/07/30 09:30:51;;;;;;;0.60;0.10;;;22.90;99.90;;;;;;5064643;28;20491;-73
2023/07/30 09:33:21;;;;;;;0.60;0.10;;;22.90;99.90;;;;;;5071676;28;20455;-66
2023/07/30 09:35:50;;;;;;;4.73;1.23;;;22.90;99.90;;;;;;5068417;28;20463;-72
2023/07/30 09:38:19;;;;;;;1.37;0.50;;;22.70;99.90;;;;;;5071453;28;20968;-72
2023/07/30 09:40:49;;;;;;;2.00;0.50;;;22.40;99.90;;;;;;5062223;28;20570;-70
2023/07/30 09:43:17;;;;;;;0.70;0.20;;;22.40;99.90;;;;;;5071923;28;20520;-77
2023/07/30 09:45:47;;;;;;;0.90;0.60;;;22.10;99.90;;;;;;5070637;28;20577;-72
2023/07/30 09:48:17;;;;;;;1.10;0.43;;;21.90;99.90;;;;;;5069135;28;20443;-74
2023/07/30 09:50:45;;;;;;;1.07;0.70;;;21.70;99.90;;;;;;5071827;28;20492;-72
2023/07/30 09:53:15;;;;;;;0.83;0.70;;;21.60;99.90;;;;;;5072332;28;20446;-75
2023/07/30 09:55:43;;;;;;;0.80;0.40;;;20.70;99.90;;;;;;5065873;28;20457;-73
2023/07/30 09:58:12;;;;;;;0.60;0.20;;;20.60;99.90;;;;;;5066334;28;20528;-75
2023/07/30 10:00:40;;;;;;;0.60;0.10;;;19.80;99.90;;;;;;5067746;28;20485;-75
2023/07/30 10:03:08;;;;;;;0.60;0.20;;;19.70;99.90;;;;;;5072016;28;20458;-75
2023/07/30 10:05:40;;;;;;;0.60;0.10;;;19.60;99.90;;;;;;5071293;28;20452;-77
2023/07/30 10:08:12;;;;;;;0.60;0.10;;;19.60;99.90;;;;;;5071501;28;20474;-76
2023/07/30 10:10:40;;;;;;;0.60;0.20;;;19.40;99.90;;;;;;5072073;28;20512;-76
2023/07/30 10:13:11;;;;;;;0.70;0.30;;;19.20;99.90;;;;;;5072943;28;21023;-74
2023/07/30 10:15:39;;;;;;;0.60;0.20;;;19.20;99.90;;;;;;5073253;28;20442;-76
2023/07/30 10:18:07;;;;;;;0.60;0.20;;;19.00;99.90;;;;;;5071564;28;20544;-74
2023/07/30 10:20:39;;;;;;;0.70;0.20;;;18.90;99.90;;;;;;5077416;28;20465;-75
2023/07/30 10:23:07;;;;;;;0.60;0.17;;;18.90;99.90;;;;;;5082615;28;20453;-77
2023/07/30 10:25:47;;;;;;;0.60;0.20;;;18.90;99.90;;;;;;5096477;22;20857;-76
2023/07/30 10:28:32;;;;;;;0.60;0.20;;;19.00;99.90;;;;;;5037294;28;20787;-75
2023/07/30 10:31:03;;;;;;;0.60;0.10;;;19.10;99.90;;;;;;5031590;28;20520;-74
2023/07/30 10:33:50;;;;;;;0.60;0.10;;;19.20;99.90;;;;;;5033100;28;20530;-76
2023/07/30 10:36:27;;;;;;;0.60;0.20;;;19.40;99.90;;;;;;5032392;28;20520;-76
2023/07/30 10:38:55;;;;;;;0.60;0.10;;;;;;;;;;5032206;28;21061;-73
2023/07/30 10:41:23;;;;;;;0.60;0.10;;;19.50;99.90;;;;;;5031934;28;20439;-76
2023/07/30 10:43:53;;;;;;;0.60;0.10;;;19.60;99.90;;;;;;5031932;28;20444;-75
2023/07/30 10:46:21;;;;;;;0.60;0.10;;;19.70;99.90;;;;;;5031425;28;20982;-75
2023/07/30 10:48:49;;;;;;;0.60;0.10;;;19.80;99.90;;;;;;5032083;28;20458;-74
2023/07/30 10:51:21;;;;;;;0.60;0.20;;;19.90;99.90;;;;;;5031452;28;21022;-74
2023/07/30 10:53:50;;;;;;;0.60;0.10;;;20.00;99.90;;;;;;5032023;28;20518;-74
2023/07/30 10:56:22;;;;;;;0.60;0.10;;;20.20;99.90;;;;;;5031426;28;20485;-74
2023/07/30 10:58:51;;;;;;;0.63;0.20;;;20.20;99.90;;;;;;5031248;28;20537;-74
2023/07/30 11:01:20;;;;;;;0.60;0.10;;;20.40;99.90;;;;;;5031407;28;20513;-74
2023/07/30 11:03:50;;;;;;;0.60;0.10;;;20.40;99.90;;;;;;5031202;28;20447;-73
2023/07/30 11:06:24;;;;;;;1.13;0.67;;;20.50;99.90;;;;;;5031191;28;20574;-75
2023/07/30 11:08:51;;;;;;;0.60;0.10;;;20.50;99.90;;;;;;5031183;28;20479;-75
2023/07/30 11:11:19;;;;;;;0.60;0.17;;;20.50;99.90;;;;;;5030965;28;20566;-74
2023/07/30 11:13:51;;;;;;;0.60;0.10;;;20.60;99.90;;;;;;5031597;28;20448;-73
2023/07/30 11:16:19;;;;;;;0.60;0.20;;;20.60;99.90;;;;;;5031703;28;20529;-73
2023/07/30 11:18:48;;;;;;;0.60;0.17;;;20.60;99.90;;;;;;5032318;28;20530;-75
2023/07/30 11:21:17;;;;;;;0.60;0.10;;;20.70;99.90;;;;;;5032829;28;21015;-74
2023/07/30 11:23:47;;;;;;;0.60;0.10;;;20.80;99.90;;;;;;5031105;28;20542;-76
2023/07/30 11:26:17;;;;;;;0.60;0.30;;;20.90;99.90;;;;;;5030535;28;20486;-74
2023/07/30 11:28:46;;;;;;;0.60;0.13;;;20.80;99.90;;;;;;5031428;28;20530;-76
2023/07/30 11:31:16;;;;;;;0.70;0.50;;;20.80;99.90;;;;;;5031490;28;20454;-74
2023/07/30 11:33:46;;;;;;;0.60;0.20;;;20.90;99.90;;;;;;5031279;28;20823;-73
2023/07/30 11:36:17;;;;;;;0.60;0.10;;;21.00;99.90;;;;;;5030964;28;20517;-74
2023/07/30 11:38:49;;;;;;;6.80;1.23;;;20.90;99.90;;;;;;5031225;28;20516;-74
2023/07/30 11:41:17;;;;;;;0.60;0.10;;;20.90;99.90;;;;;;5031149;28;20458;-75
2023/07/30 11:43:45;;;;;;;0.70;0.17;;;21.00;99.90;;;;;;5021714;28;20971;-75
2023/07/30 11:46:22;;;;;;;0.73;0.40;;;21.00;90.80;;;;;;5010749;28;20492;-76
2023/07/30 11:48:52;;;;;;;0.70;0.30;;;20.80;65.50;;;;;;5011430;28;20448;-74
2023/07/30 11:51:22;;;;;;;0.60;0.23;;;20.80;62.30;;;;;;5010914;28;20455;-75
2023/07/30 11:53:56;;;;;;;1.00;0.70;;;20.80;63.40;;;;;;5010823;28;21120;-76
2023/07/30 11:56:28;;;;;;;0.90;0.60;;;20.80;59.50;;;;;;5027857;28;20459;-75
2023/07/30 11:58:58;;;;;;;1.63;0.30;;;20.80;57.20;;;;;;5033353;28;20450;-77
2023/07/30 12:01:29;;;;;;;0.90;0.40;;;20.90;47.50;;;;;;5034836;28;20514;-74
2023/07/30 12:04:00;;;;;;;0.87;0.33;;;20.80;49.70;;;;;;5034818;28;20445;-76
2023/07/30 12:06:39;;;;;;;1.00;0.30;;;20.80;45.20;;;;;;5033880;28;20836;-76
2023/07/30 12:09:13;;;;;;;0.70;0.30;;;20.80;46.30;;;;;;5035382;28;20766;-76
2023/07/30 12:11:49;;;;;;;0.60;0.30;;;20.80;49.20;;;;;;5035262;28;20944;-77
2023/07/30 12:14:17;;;;;;;0.93;0.70;;;20.70;47.40;;;;;;5037595;28;20477;-77
2023/07/30 12:16:45;;;;;;;0.60;0.20;;;20.80;50.00;;;;;;5038510;28;20497;-77
2023/07/30 12:19:15;;;;;;;0.60;0.20;;;21.10;48.60;;;;;;5038582;28;20466;-76
2023/07/30 12:21:44;;;;;;;0.73;0.30;;;21.20;42.60;;;;;;5035739;28;20444;-76
2023/07/30 12:24:16;;;;;;;0.60;0.10;;;21.20;36.70;;;;;;5034119;28;20936;-76
2023/07/30 12:26:44;;;;;;;0.70;0.20;;;21.30;30.10;;;;;;5033949;28;20475;-75
2023/07/30 12:29:12;;;;;;;4.67;0.40;;;21.00;23.50;;;;;;5034767;28;20447;-77
2023/07/30 12:31:40;;;;;;;0.60;0.20;;;21.00;26.00;;;;;;5034128;28;20448;-76
2023/07/30 12:34:08;;;;;;;0.60;0.10;;;20.90;23.10;;;;;;5034232;28;20458;-76
2023/07/30 12:36:36;;;;;;;0.60;0.30;;;20.90;23.90;;;;;;5034711;28;20455;-76
2023/07/30 12:39:04;;;;;;;0.60;0.30;;;21.10;25.80;;;;;;5035308;28;20530;-76
2023/07/30 12:41:33;;;;;;;0.60;0.10;;;21.00;22.80;;;;;;5034543;28;20530;-76
2023/07/30 12:44:03;;;;;;;0.80;0.50;;;21.00;23.20;;;;;;5034713;28;20436;-77
2023/07/30 12:46:32;;;;;;;0.90;0.60;;;21.10;22.10;;;;;;5033627;28;20530;-77
2023/07/30 12:49:03;;;;;;;1.67;0.70;;;21.30;16.70;;;;;;5034016;28;20440;-76
2023/07/30 12:51:31;;;;;;;0.60;0.13;;;21.30;16.00;;;;;;5033998;28;20444;-77
2023/07/30 12:53:59;;;;;;;0.60;0.10;;;21.30;12.00;;;;;;5034232;28;20530;-77
2023/07/30 12:56:27;;;;;;;0.60;0.20;;;21.40;12.50;;;;;;5033741;28;21039;-76
2023/07/30 12:58:56;;;;;;;0.60;0.10;;;21.60;15.70;;;;;;5033841;28;20436;-76
2023/07/30 13:01:24;;;;;;;0.60;0.20;;;21.60;1.00;;;;;;5037276;28;20522;-77
2023/07/30 13:03:54;;;;;;;1.07;0.80;;;;;;;;;;5034297;28;20515;-76
2023/07/30 13:06:22;;;;;;;0.60;0.30;;;21.60;1.00;;;;;;5033378;28;20470;-75
2023/07/30 13:08:50;;;;;;;0.70;0.30;;;;;;;;;;5033483;28;20444;-76
2023/07/30 13:11:18;;;;;;;0.80;0.33;;;21.90;1.00;;;;;;5033660;28;20490;-77
2023/07/30 13:13:46;;;;;;;3.77;0.57;;;21.80;4.90;;;;;;5036602;28;20911;-76
2023/07/30 13:16:16;;;;;;;1.57;0.60;;;;;;;;;;5038675;28;20478;-77
2023/07/30 13:18:44;;;;;;;0.80;0.40;;;;;;;;;;5034262;28;20506;-76
2023/07/30 13:21:12;;;;;;;0.70;0.40;;;21.20;1.00;;;;;;5033345;28;20448;-76
2023/07/30 13:23:40;;;;;;;0.80;0.30;;;21.00;1.00;;;;;;5033365;28;20484;-75
2023/07/30 13:26:08;;;;;;;0.70;0.30;;;21.00;1.00;;;;;;5032731;28;20908;-76
2023/07/30 13:28:35;;;;;;;0.93;0.50;;;21.10;1.00;;;;;;5032893;28;20543;-76
2023/07/30 13:31:03;;;;;;;0.60;0.10;;;21.20;1.00;;;;;;5033167;28;21018;-76
2023/07/30 13:33:33;;;;;;;0.87;0.53;;;21.40;7.00;;;;;;5033088;28;20483;-76
2023/07/30 13:36:00;;;;;;;1.07;0.30;;;21.40;1.00;;;;;;5033066;28;20566;-76
2023/07/30 13:38:29;;;;;;;0.70;0.40;;;;;;;;;;5032749;28;20866;-75
2023/07/30 13:40:57;;;;;;;0.60;0.10;;;;;;;;;;5032878;28;20559;-77
2023/07/30 13:43:25;;;;;;;0.60;0.10;;;21.70;1.00;;;;;;5026373;28;21159;-77
2023/07/30 13:45:53;;;;;;;0.93;0.30;;;;;;;;;;5012829;28;20496;-77
2023/07/30 13:48:21;;;;;;;0.60;0.13;;;22.20;1.00;;;;;;5013591;28;20460;-78
2023/07/30 13:50:50;;;;;;;0.63;0.30;;;22.40;1.00;;;;;;5013484;28;20888;-77
2023/07/30 13:53:18;;;;;;;0.70;0.40;;;22.20;1.00;;;;;;5013818;28;20870;-77
2023/07/30 13:55:46;;;;;;;0.60;0.10;;;22.10;1.00;;;;;;5012781;28;20498;-77
2023/07/30 13:58:14;;;;;;;0.60;0.20;;;22.30;1.00;;;;;;5013277;28;20548;-77
2023/07/30 14:00:43;;;;;;;0.60;0.20;;;22.40;1.00;;;;;;5012771;28;20967;-75
2023/07/30 14:03:11;;;;;;;0.60;0.10;;;22.40;1.00;;;;;;5013030;28;20836;-77
2023/07/30 14:05:40;;;;;;;0.80;0.47;;;22.60;1.00;;;;;;5012769;28;20890;-77
2023/07/30 14:08:09;;;;;;;0.83;0.40;;;22.80;1.00;;;;;;5013517;28;20882;-76
2023/07/30 14:10:37;;;;;;;0.60;0.10;;;;;;;;;;5012687;28;20544;-76
2023/07/30 14:13:05;;;;;;;0.70;0.23;;;22.80;1.00;;;;;;5014001;28;20478;-77
2023/07/30 14:15:33;;;;;;;3.73;1.63;;;;;;;;;;5012317;28;20475;-77
2023/07/30 14:18:01;;;;;;;0.70;0.30;;;22.70;1.00;;;;;;5012094;28;20552;-77
2023/07/30 14:20:29;;;;;;;0.70;0.20;;;22.70;1.00;;;;;;5011911;28;20550;-76
2023/07/30 14:22:57;;;;;;;0.80;0.70;;;22.40;1.00;;;;;;5012382;28;20510;-77
2023/07/30 14:25:26;;;;;;;0.60;0.20;;;22.30;1.00;;;;;;5012870;28;20968;-72
2023/07/30 14:27:54;;;;;;;0.70;0.20;;;22.40;1.00;;;;;;5016334;28;20471;-70
2023/07/30 14:30:22;;;;;;;1.50;0.73;;;22.20;1.00;;;;;;5024976;28;20956;-71
2023/07/30 14:32:50;;;;;;;1.27;1.13;;;22.20;1.00;;;;;;5035529;28;20515;-72
2023/07/30 14:35:18;;;;;;;0.77;0.50;;;21.90;1.00;;;;;;5032933;28;20443;-72
2023/07/30 14:37:47;;;;;;;5.23;1.23;;;21.90;1.00;;;;;;5026165;28;20555;-71
2023/07/30 14:40:14;;;;;;;0.90;0.30;;;21.80;1.00;;;;;;5026430;28;20538;-71
2023/07/30 14:42:44;;;;;;;0.80;0.50;;;21.70;1.00;;;;;;5037422;28;20555;-70
2023/07/30 14:45:11;;;;;;;0.87;0.33;;;21.80;1.00;;;;;;5037179;28;20550;-70
2023/07/30 14:47:39;;;;;;;0.60;0.20;;;21.90;1.00;;;;;;5035772;28;20512;-72
2023/07/30 14:50:08;;;;;;;0.70;0.50;;;22.00;1.00;;;;;;5039908;28;20530;-70
2023/07/30 14:52:36;;;;;;;0.60;0.10;;;22.00;1.00;;;;;;5030503;28;20503;-75
2023/07/30 14:55:04;;;;;;;0.60;0.20;;;22.20;1.00;;;;;;5013307;28;20547;-75
2023/07/30 14:57:33;;;;;;;0.60;0.20;;;;;;;;;;5014705;28;20912;-77
2023/07/30 15:00:02;;;;;;;1.23;0.63;;;22.40;1.00;;;;;;5015165;28;20996;-77
2023/07/30 15:02:31;;;;;;;2.27;0.83;;;22.20;1.00;;;;;;5037840;28;20444;-76
2023/07/30 15:04:59;;;;;;;1.03;0.80;;;;;;;;;;5020651;28;20498;-75
2023/07/30 15:07:28;;;;;;;0.60;0.17;;;;;;;;;;5022486;28;20512;-77
2023/07/30 15:09:56;;;;;;;0.60;0.10;;;22.00;1.00;;;;;;5023491;28;20958;-75
2023/07/30 15:12:24;;;;;;;0.70;0.30;;;22.40;1.00;;;;;;5015349;28;20461;-73
2023/07/30 15:14:52;;;;;;;1.20;0.57;;;22.60;1.00;;;;;;5022878;28;20478;-73
2023/07/30 15:17:21;;;;;;;1.50;0.73;;;22.60;1.00;;;;;;5019426;28;20488;-74
2023/07/30 15:19:50;;;;;;;2.57;1.10;;;22.90;1.00;;;;;;5019812;28;20554;-71
2023/07/30 15:22:19;;;;;;;0.60;0.10;;;23.00;1.00;;;;;;5018292;28;20445;-73
2023/07/30 15:24:46;;;;;;;3.80;1.00;;;22.90;1.00;;;;;;5023103;28;20448;-75
2023/07/30 15:27:17;;;;;;;0.60;0.20;;;;;;;;;;5029971;28;20480;-70
2023/07/30 15:29:48;;;;;;;0.90;0.60;;;22.90;1.00;;;;;;5021892;28;21027;-73
2023/07/30 15:32:15;;;;;;;5.50;0.73;;;22.70;1.00;;;;;;5032273;28;20864;-72
2023/07/30 15:34:45;;;;;;;0.60;0.10;;;22.50;1.00;;;;;;5035537;28;21013;-71
2023/07/30 15:37:12;;;;;;;0.60;0.10;;;23.00;1.00;;;;;;5034064;28;20521;-72
2023/07/30 15:39:40;;;;;;;0.70;0.40;;;23.30;1.00;;;;;;5025324;28;20477;-71
2023/07/30 15:42:08;;;;;;;0.60;0.20;;;23.40;1.00;;;;;;5040485;28;20543;-71
2023/07/30 15:44:36;;;;;;;0.60;0.10;;;23.40;1.00;;;;;;5025828;28;20452;-71
2023/07/30 15:47:04;;;;;;;0.67;0.33;;;23.60;1.00;;;;;;5015476;28;20569;-72
2023/07/30 15:49:33;;;;;;;3.07;0.87;;;23.50;1.00;;;;;;5021876;28;20453;-71
2023/07/30 15:52:03;;;;;;;2.80;0.87;;;23.50;1.00;;;;;;5034510;28;22390;-72
2023/07/30 15:54:34;;;;;;;0.60;0.20;;;23.40;1.00;;;;;;5034908;28;20588;-72
2023/07/30 15:57:05;;;;;;;1.40;0.70;;;23.30;1.00;;;;;;5045255;28;20500;-71
2023/07/30 15:59:33;;;;;;;0.60;0.20;;;23.20;1.00;;;;;;5038809;28;20875;-70
2023/07/30 16:02:01;;;;;;;0.80;0.30;;;;;;;;;;5034675;28;20830;-73
2023/07/30 16:04:30;;;;;;;0.60;0.10;;;23.30;1.00;;;;;;5042565;28;20779;-72
2023/07/30 16:07:00;;;;;;;1.07;0.50;;;23.30;1.00;;;;;;5034458;28;21001;-71
2023/07/30 16:09:29;;;;;;;0.60;0.10;;;23.40;1.00;;;;;;5028985;28;20508;-70
2023/07/30 16:11:57;;;;;;;0.80;0.40;;;23.50;1.00;;;;;;5016293;28;20449;-72
2023/07/30 16:14:25;;;;;;;1.13;0.47;;;23.60;1.00;;;;;;5016743;28;20496;-72
2023/07/30 16:16:53;;;;;;;6.63;0.47;;;23.50;1.00;;;;;;5026772;28;20532;-72
2023/07/30 16:19:23;;;;;;;0.70;0.20;;;23.70;1.00;;;;;;5031607;28;20466;-68
2023/07/30 16:21:51;;;;;;;1.20;0.77;;;23.90;1.00;;;;;;5015231;28;20893;-70
2023/07/30 16:24:19;;;;;;;2.87;0.40;;;23.80;1.00;;;;;;5028332;28;20451;-72
2023/07/30 16:26:48;;;;;;;0.93;0.83;;;23.90;1.00;;;;;;5030347;28;20519;-76
2023/07/30 16:29:16;;;;;;;0.60;0.20;;;;;;;;;;5033551;28;20914;-72
2023/07/30 16:31:45;;;;;;;0.70;0.20;;;;;;;;;;5036158;28;20536;-70
2023/07/30 16:34:13;;;;;;;0.70;0.40;;;;;;;;;;5048833;28;22940;-70
2023/07/30 16:36:41;;;;;;;0.90;0.40;;;;;;;;;;5034168;28;20529;-72
2023/07/30 16:39:09;;;;;;;0.93;0.40;;;24.40;1.00;;;;;;5015043;28;20445;-71
2023/07/30 16:41:37;;;;;;;1.50;0.47;;;24.30;1.00;;;;;;5014077;28;20896;-69
2023/07/30 16:44:07;;;;;;;3.13;1.40;;;24.20;1.00;;;;;;5020349;28;20486;-72
2023/07/30 16:46:34;;;;;;;0.80;0.40;;;23.70;1.00;;;;;;5019711;28;20476;-68
2023/07/30 16:49:03;;;;;;;1.10;0.40;;;23.50;1.00;;;;;;5023467;28;20520;-69
2023/07/30 16:51:31;;;;;;;1.57;0.93;;;23.50;1.00;;;;;;5029892;28;20504;-72
2023/07/30 16:53:59;;;;;;;0.80;0.40;;;23.60;1.00;;;;;;5026249;28;20473;-71
2023/07/30 16:56:26;;;;;;;0.70;0.20;;;23.70;1.00;;;;;;5019386;28;21046;-71
2023/07/30 16:58:54;;;;;;;0.80;0.30;;;23.90;1.00;;;;;;5029684;28;20461;-73
2023/07/30 17:01:23;;;;;;;0.73;0.47;;;24.00;1.00;;;;;;5017308;28;20453;-72
2023/07/30 17:03:52;;;;;;;1.17;0.63;;;;;;;;;;5032717;28;20464;-68
2023/07/30 17:06:20;;;;;;;0.67;0.10;;;24.30;1.00;;;;;;5036506;28;20473;-71
2023/07/30 17:08:48;;;;;;;0.70;0.17;;;;;;;;;;5021116;28;20460;-72